sensor_id;sensor_type;location;lat;lon;timestamp;P1;durP1;ratioP1;P2;durP2;ratioP2
20093;SDS011;10206;48.012;10.030;2023-01-26T00:02:02;30.83;;;14.63;;
20093;SDS011;10206;48.012;10.030;2023-01-26T00:04:28;33.03;;;15.47;;
20093;SDS011;10206;48.012;10.030;2023-01-26T00:06:54;32.50;;;15.20;;
20093;SDS011;10206;48.012;10.030;2023-01-26T00:09:20;32.90;;;14.70;;
20093;SDS011;10206;48.012;10.030;2023-01-26T00:11:46;34.83;;;15.07;;
20093;SDS011;10206;48.012;10.030;2023-01-26T00:14:12;29.30;;;14.00;;
20093;SDS011;10206;48.012;10.030;2023-01-26T00:16:39;33.00;;;15.53;;
20093;SDS011;10206;48.012;10.030;2023-01-26T00:19:05;33.47;;;14.87;;
20093;SDS011;10206;48.012;10.030;2023-01-26T00:21:31;30.17;;;14.00;;
20093;SDS011;10206;48.012;10.030;2023-01-26T00:23:57;30.77;;;14.10;;
20093;SDS011;10206;48.012;10.030;2023-01-26T00:26:24;30.20;;;13.47;;
20093;SDS011;10206;48.012;10.030;2023-01-26T00:28:51;33.17;;;14.33;;
20093;SDS011;10206;48.012;10.030;2023-01-26T00:31:19;30.37;;;14.67;;
20093;SDS011;10206;48.012;10.030;2023-01-26T00:33:50;28.47;;;13.47;;
20093;SDS011;10206;48.012;10.030;2023-01-26T00:36:17;30.30;;;14.63;;
20093;SDS011;10206;48.012;10.030;2023-01-26T00:38:43;28.57;;;14.40;;
20093;SDS011;10206;48.012;10.030;2023-01-26T00:41:10;32.87;;;14.40;;
20093;SDS011;10206;48.012;10.030;2023-01-26T00:43:56;30.90;;;14.30;;
20093;SDS011;10206;48.012;10.030;2023-01-26T00:46:22;29.17;;;13.60;;
20093;SDS011;10206;48.012;10.030;2023-01-26T00:48:48;30.40;;;14.53;;
20093;SDS011;10206;48.012;10.030;2023-01-26T00:51:14;30.93;;;14.27;;
20093;SDS011;10206;48.012;10.030;2023-01-26T00:53:40;31.37;;;14.20;;
20093;SDS011;10206;48.012;10.030;2023-01-26T00:56:07;34.73;;;15.63;;
20093;SDS011;10206;48.012;10.030;2023-01-26T00:58:33;27.67;;;13.90;;
20093;SDS011;10206;48.012;10.030;2023-01-26T01:00:59;29.10;;;14.47;;
20093;SDS011;10206;48.012;10.030;2023-01-26T01:03:25;31.70;;;14.03;;
20093;SDS011;10206;48.012;10.030;2023-01-26T01:05:51;29.80;;;14.83;;
20093;SDS011;10206;48.012;10.030;2023-01-26T01:08:17;31.80;;;14.70;;
20093;SDS011;10206;48.012;10.030;2023-01-26T01:10:43;34.90;;;16.43;;
20093;SDS011;10206;48.012;10.030;2023-01-26T01:13:09;35.00;;;14.97;;
20093;SDS011;10206;48.012;10.030;2023-01-26T01:15:37;38.60;;;16.23;;
20093;SDS011;10206;48.012;10.030;2023-01-26T01:18:03;38.70;;;16.87;;
20093;SDS011;10206;48.012;10.030;2023-01-26T01:20:29;37.93;;;15.90;;
20093;SDS011;10206;48.012;10.030;2023-01-26T01:22:56;36.63;;;16.03;;
20093;SDS011;10206;48.012;10.030;2023-01-26T01:25:22;32.77;;;14.60;;
20093;SDS011;10206;48.012;10.030;2023-01-26T01:27:48;30.70;;;14.73;;
20093;SDS011;10206;48.012;10.030;2023-01-26T01:30:14;35.73;;;14.67;;
20093;SDS011;10206;48.012;10.030;2023-01-26T01:32:40;36.33;;;15.80;;
20093;SDS011;10206;48.012;10.030;2023-01-26T01:35:07;35.43;;;15.40;;
20093;SDS011;10206;48.012;10.030;2023-01-26T01:37:33;32.30;;;14.73;;
20093;SDS011;10206;48.012;10.030;2023-01-26T01:40:00;31.50;;;14.33;;
20093;SDS011;10206;48.012;10.030;2023-01-26T01:42:26;29.87;;;13.00;;
20093;SDS011;10206;48.012;10.030;2023-01-26T01:47:46;29.27;;;13.80;;
20093;SDS011;10206;48.012;10.030;2023-01-26T01:50:14;26.13;;;12.60;;
20093;SDS011;10206;48.012;10.030;2023-01-26T01:52:41;27.87;;;14.00;;
20093;SDS011;10206;48.012;10.030;2023-01-26T01:55:08;30.93;;;13.80;;
20093;SDS011;10206;48.012;10.030;2023-01-26T01:57:37;33.00;;;14.20;;
20093;SDS011;10206;48.012;10.030;2023-01-26T02:00:12;30.00;;;13.03;;
20093;SDS011;10206;48.012;10.030;2023-01-26T02:02:43;28.17;;;13.97;;
20093;SDS011;10206;48.012;10.030;2023-01-26T02:05:32;29.33;;;13.67;;
20093;SDS011;10206;48.012;10.030;2023-01-26T02:08:05;33.37;;;15.10;;
20093;SDS011;10206;48.012;10.030;2023-01-26T02:10:33;29.00;;;13.93;;
20093;SDS011;10206;48.012;10.030;2023-01-26T02:13:00;33.90;;;13.93;;
20093;SDS011;10206;48.012;10.030;2023-01-26T02:15:28;34.33;;;14.20;;
20093;SDS011;10206;48.012;10.030;2023-01-26T02:17:55;35.53;;;14.73;;
20093;SDS011;10206;48.012;10.030;2023-01-26T02:20:31;27.23;;;12.83;;
20093;SDS011;10206;48.012;10.030;2023-01-26T02:28:16;34.80;;;14.30;;
20093;SDS011;10206;48.012;10.030;2023-01-26T02:30:44;35.17;;;14.63;;
20093;SDS011;10206;48.012;10.030;2023-01-26T02:33:21;31.47;;;15.00;;
20093;SDS011;10206;48.012;10.030;2023-01-26T02:35:49;33.70;;;14.97;;
20093;SDS011;10206;48.012;10.030;2023-01-26T02:38:16;36.87;;;15.97;;
20093;SDS011;10206;48.012;10.030;2023-01-26T02:40:57;35.17;;;14.67;;
20093;SDS011;10206;48.012;10.030;2023-01-26T02:43:32;36.00;;;14.53;;
20093;SDS011;10206;48.012;10.030;2023-01-26T02:45:58;32.97;;;15.03;;
20093;SDS011;10206;48.012;10.030;2023-01-26T02:48:24;33.10;;;15.83;;
20093;SDS011;10206;48.012;10.030;2023-01-26T02:51:09;33.17;;;15.00;;
20093;SDS011;10206;48.012;10.030;2023-01-26T02:53:35;30.40;;;12.57;;
20093;SDS011;10206;48.012;10.030;2023-01-26T02:56:01;29.07;;;13.50;;
20093;SDS011;10206;48.012;10.030;2023-01-26T02:58:28;36.77;;;15.80;;
20093;SDS011;10206;48.012;10.030;2023-01-26T03:00:54;35.73;;;14.47;;
20093;SDS011;10206;48.012;10.030;2023-01-26T03:03:21;36.17;;;15.20;;
20093;SDS011;10206;48.012;10.030;2023-01-26T03:05:50;32.97;;;14.50;;
20093;SDS011;10206;48.012;10.030;2023-01-26T03:08:17;35.80;;;14.53;;
20093;SDS011;10206;48.012;10.030;2023-01-26T03:10:43;28.73;;;14.10;;
20093;SDS011;10206;48.012;10.030;2023-01-26T03:13:11;34.33;;;13.87;;
20093;SDS011;10206;48.012;10.030;2023-01-26T03:15:37;31.87;;;13.70;;
20093;SDS011;10206;48.012;10.030;2023-01-26T03:18:11;29.17;;;12.80;;
20093;SDS011;10206;48.012;10.030;2023-01-26T03:21:08;37.67;;;14.30;;
20093;SDS011;10206;48.012;10.030;2023-01-26T03:23:57;29.10;;;12.67;;
20093;SDS011;10206;48.012;10.030;2023-01-26T03:26:42;33.73;;;14.33;;
20093;SDS011;10206;48.012;10.030;2023-01-26T03:29:27;36.17;;;14.40;;
20093;SDS011;10206;48.012;10.030;2023-01-26T03:31:54;28.97;;;13.83;;
20093;SDS011;10206;48.012;10.030;2023-01-26T03:34:20;30.73;;;13.93;;
20093;SDS011;10206;48.012;10.030;2023-01-26T03:36:47;29.07;;;13.20;;
20093;SDS011;10206;48.012;10.030;2023-01-26T03:39:13;32.43;;;13.50;;
20093;SDS011;10206;48.012;10.030;2023-01-26T03:41:58;29.23;;;13.73;;
20093;SDS011;10206;48.012;10.030;2023-01-26T03:44:43;31.97;;;13.57;;
20093;SDS011;10206;48.012;10.030;2023-01-26T03:47:30;33.63;;;13.40;;
20093;SDS011;10206;48.012;10.030;2023-01-26T03:50:15;29.10;;;13.53;;
20093;SDS011;10206;48.012;10.030;2023-01-26T03:53:00;27.63;;;12.23;;
20093;SDS011;10206;48.012;10.030;2023-01-26T03:55:45;31.20;;;13.23;;
20093;SDS011;10206;48.012;10.030;2023-01-26T03:58:29;29.47;;;12.70;;
20093;SDS011;10206;48.012;10.030;2023-01-26T04:00:56;30.30;;;13.57;;
20093;SDS011;10206;48.012;10.030;2023-01-26T04:03:22;27.43;;;12.73;;
20093;SDS011;10206;48.012;10.030;2023-01-26T04:06:07;33.07;;;14.47;;
20093;SDS011;10206;48.012;10.030;2023-01-26T04:08:51;29.40;;;12.60;;
20093;SDS011;10206;48.012;10.030;2023-01-26T04:11:17;28.83;;;13.37;;
20093;SDS011;10206;48.012;10.030;2023-01-26T04:13:43;31.57;;;13.63;;
20093;SDS011;10206;48.012;10.030;2023-01-26T04:16:28;33.80;;;14.07;;
20093;SDS011;10206;48.012;10.030;2023-01-26T04:19:12;30.10;;;13.23;;
20093;SDS011;10206;48.012;10.030;2023-01-26T04:22:00;27.80;;;12.37;;
20093;SDS011;10206;48.012;10.030;2023-01-26T04:24:26;28.73;;;13.37;;
20093;SDS011;10206;48.012;10.030;2023-01-26T04:26:52;33.03;;;14.07;;
20093;SDS011;10206;48.012;10.030;2023-01-26T04:29:18;30.63;;;13.47;;
20093;SDS011;10206;48.012;10.030;2023-01-26T04:31:44;32.07;;;13.27;;
20093;SDS011;10206;48.012;10.030;2023-01-26T04:34:11;27.23;;;12.13;;
20093;SDS011;10206;48.012;10.030;2023-01-26T04:36:39;26.70;;;12.67;;
20093;SDS011;10206;48.012;10.030;2023-01-26T04:39:06;27.97;;;11.93;;
20093;SDS011;10206;48.012;10.030;2023-01-26T04:41:32;30.93;;;13.30;;
20093;SDS011;10206;48.012;10.030;2023-01-26T04:43:59;29.00;;;13.57;;
20093;SDS011;10206;48.012;10.030;2023-01-26T04:46:25;29.70;;;12.43;;
20093;SDS011;10206;48.012;10.030;2023-01-26T04:48:51;31.47;;;13.47;;
20093;SDS011;10206;48.012;10.030;2023-01-26T04:51:18;31.83;;;13.90;;
20093;SDS011;10206;48.012;10.030;2023-01-26T04:53:46;31.77;;;13.20;;
20093;SDS011;10206;48.012;10.030;2023-01-26T04:58:49;31.57;;;12.57;;
20093;SDS011;10206;48.012;10.030;2023-01-26T05:01:16;27.70;;;11.90;;
20093;SDS011;10206;48.012;10.030;2023-01-26T05:03:43;30.53;;;13.53;;
20093;SDS011;10206;48.012;10.030;2023-01-26T05:06:10;28.83;;;12.63;;
20093;SDS011;10206;48.012;10.030;2023-01-26T05:08:36;26.27;;;12.93;;
20093;SDS011;10206;48.012;10.030;2023-01-26T05:11:03;23.27;;;11.90;;
20093;SDS011;10206;48.012;10.030;2023-01-26T05:13:29;29.60;;;12.47;;
20093;SDS011;10206;48.012;10.030;2023-01-26T05:15:55;30.40;;;13.57;;
20093;SDS011;10206;48.012;10.030;2023-01-26T05:18:21;28.00;;;12.53;;
20093;SDS011;10206;48.012;10.030;2023-01-26T05:20:47;26.93;;;12.20;;
20093;SDS011;10206;48.012;10.030;2023-01-26T05:23:13;28.03;;;13.27;;
20093;SDS011;10206;48.012;10.030;2023-01-26T05:25:40;28.57;;;12.90;;
20093;SDS011;10206;48.012;10.030;2023-01-26T05:28:06;29.10;;;12.87;;
20093;SDS011;10206;48.012;10.030;2023-01-26T05:30:32;31.83;;;13.23;;
20093;SDS011;10206;48.012;10.030;2023-01-26T05:32:59;28.97;;;13.13;;
20093;SDS011;10206;48.012;10.030;2023-01-26T05:35:26;26.67;;;13.00;;
20093;SDS011;10206;48.012;10.030;2023-01-26T05:37:52;28.63;;;13.83;;
20093;SDS011;10206;48.012;10.030;2023-01-26T05:40:19;34.20;;;12.97;;
20093;SDS011;10206;48.012;10.030;2023-01-26T05:42:46;28.10;;;13.20;;
20093;SDS011;10206;48.012;10.030;2023-01-26T05:45:12;28.53;;;12.90;;
20093;SDS011;10206;48.012;10.030;2023-01-26T05:47:38;27.73;;;12.67;;
20093;SDS011;10206;48.012;10.030;2023-01-26T05:50:07;29.90;;;13.33;;
20093;SDS011;10206;48.012;10.030;2023-01-26T05:52:33;29.27;;;12.93;;
20093;SDS011;10206;48.012;10.030;2023-01-26T05:54:59;28.90;;;12.77;;
20093;SDS011;10206;48.012;10.030;2023-01-26T05:57:26;30.80;;;13.30;;
20093;SDS011;10206;48.012;10.030;2023-01-26T05:59:52;28.87;;;12.80;;
20093;SDS011;10206;48.012;10.030;2023-01-26T06:02:18;29.10;;;13.37;;
20093;SDS011;10206;48.012;10.030;2023-01-26T06:04:44;32.60;;;13.13;;
20093;SDS011;10206;48.012;10.030;2023-01-26T06:07:10;28.27;;;11.43;;
20093;SDS011;10206;48.012;10.030;2023-01-26T06:09:39;24.23;;;11.33;;
20093;SDS011;10206;48.012;10.030;2023-01-26T06:12:06;23.07;;;10.93;;
20093;SDS011;10206;48.012;10.030;2023-01-26T06:14:40;25.10;;;11.00;;
20093;SDS011;10206;48.012;10.030;2023-01-26T06:17:06;25.97;;;11.80;;
20093;SDS011;10206;48.012;10.030;2023-01-26T06:19:32;21.07;;;9.73;;
20093;SDS011;10206;48.012;10.030;2023-01-26T06:22:00;26.10;;;12.73;;
20093;SDS011;10206;48.012;10.030;2023-01-26T06:24:26;25.97;;;12.63;;
20093;SDS011;10206;48.012;10.030;2023-01-26T06:26:52;26.00;;;12.63;;
20093;SDS011;10206;48.012;10.030;2023-01-26T06:29:18;27.10;;;11.13;;
20093;SDS011;10206;48.012;10.030;2023-01-26T06:31:44;22.37;;;10.63;;
20093;SDS011;10206;48.012;10.030;2023-01-26T06:34:10;24.63;;;10.77;;
20093;SDS011;10206;48.012;10.030;2023-01-26T06:36:36;22.27;;;10.40;;
20093;SDS011;10206;48.012;10.030;2023-01-26T06:39:02;23.33;;;9.90;;
20093;SDS011;10206;48.012;10.030;2023-01-26T06:41:29;24.37;;;11.53;;
20093;SDS011;10206;48.012;10.030;2023-01-26T06:43:55;23.30;;;11.03;;
20093;SDS011;10206;48.012;10.030;2023-01-26T06:46:21;24.00;;;10.87;;
20093;SDS011;10206;48.012;10.030;2023-01-26T06:48:47;26.07;;;11.00;;
20093;SDS011;10206;48.012;10.030;2023-01-26T06:53:52;23.70;;;11.43;;
20093;SDS011;10206;48.012;10.030;2023-01-26T06:56:19;27.17;;;12.37;;
20093;SDS011;10206;48.012;10.030;2023-01-26T06:58:46;23.27;;;11.37;;
20093;SDS011;10206;48.012;10.030;2023-01-26T07:01:19;29.03;;;12.03;;
20093;SDS011;10206;48.012;10.030;2023-01-26T07:03:47;24.20;;;11.30;;
20093;SDS011;10206;48.012;10.030;2023-01-26T07:06:14;25.33;;;11.67;;
20093;SDS011;10206;48.012;10.030;2023-01-26T07:08:40;26.60;;;11.50;;
20093;SDS011;10206;48.012;10.030;2023-01-26T07:11:07;27.13;;;12.20;;
20093;SDS011;10206;48.012;10.030;2023-01-26T07:13:33;26.40;;;12.10;;
20093;SDS011;10206;48.012;10.030;2023-01-26T07:16:00;26.00;;;11.90;;
20093;SDS011;10206;48.012;10.030;2023-01-26T07:18:26;25.03;;;11.77;;
20093;SDS011;10206;48.012;10.030;2023-01-26T07:20:52;24.43;;;11.50;;
20093;SDS011;10206;48.012;10.030;2023-01-26T07:23:18;26.63;;;12.40;;
20093;SDS011;10206;48.012;10.030;2023-01-26T07:25:45;28.87;;;11.73;;
20093;SDS011;10206;48.012;10.030;2023-01-26T07:28:11;27.90;;;12.90;;
20093;SDS011;10206;48.012;10.030;2023-01-26T07:30:37;29.53;;;14.37;;
20093;SDS011;10206;48.012;10.030;2023-01-26T07:33:03;29.90;;;13.53;;
20093;SDS011;10206;48.012;10.030;2023-01-26T07:35:29;26.07;;;12.63;;
20093;SDS011;10206;48.012;10.030;2023-01-26T07:37:56;29.23;;;13.03;;
20093;SDS011;10206;48.012;10.030;2023-01-26T07:40:23;27.67;;;12.57;;
20093;SDS011;10206;48.012;10.030;2023-01-26T07:42:49;26.60;;;11.83;;
20093;SDS011;10206;48.012;10.030;2023-01-26T07:45:15;27.97;;;12.50;;
20093;SDS011;10206;48.012;10.030;2023-01-26T07:47:42;36.83;;;16.67;;
20093;SDS011;10206;48.012;10.030;2023-01-26T07:50:08;36.00;;;15.90;;
20093;SDS011;10206;48.012;10.030;2023-01-26T07:52:36;29.30;;;15.03;;
20093;SDS011;10206;48.012;10.030;2023-01-26T07:55:02;29.83;;;13.83;;
20093;SDS011;10206;48.012;10.030;2023-01-26T07:57:29;27.63;;;12.77;;
20093;SDS011;10206;48.012;10.030;2023-01-26T07:59:56;28.90;;;13.53;;
20093;SDS011;10206;48.012;10.030;2023-01-26T08:02:22;31.13;;;13.47;;
20093;SDS011;10206;48.012;10.030;2023-01-26T08:04:48;31.40;;;13.13;;
20093;SDS011;10206;48.012;10.030;2023-01-26T08:07:14;30.67;;;13.83;;
20093;SDS011;10206;48.012;10.030;2023-01-26T08:09:40;39.50;;;16.10;;
20093;SDS011;10206;48.012;10.030;2023-01-26T08:12:07;34.10;;;14.97;;
20093;SDS011;10206;48.012;10.030;2023-01-26T08:14:33;27.30;;;13.20;;
20093;SDS011;10206;48.012;10.030;2023-01-26T08:17:00;29.90;;;13.37;;
20093;SDS011;10206;48.012;10.030;2023-01-26T08:19:26;30.33;;;13.90;;
20093;SDS011;10206;48.012;10.030;2023-01-26T08:21:52;32.50;;;13.53;;
20093;SDS011;10206;48.012;10.030;2023-01-26T08:24:18;37.23;;;15.87;;
20093;SDS011;10206;48.012;10.030;2023-01-26T08:26:44;29.07;;;13.70;;
20093;SDS011;10206;48.012;10.030;2023-01-26T08:29:10;32.63;;;14.40;;
20093;SDS011;10206;48.012;10.030;2023-01-26T08:31:37;34.53;;;14.43;;
20093;SDS011;10206;48.012;10.030;2023-01-26T08:34:03;33.13;;;15.00;;
20093;SDS011;10206;48.012;10.030;2023-01-26T08:36:29;30.97;;;13.77;;
20093;SDS011;10206;48.012;10.030;2023-01-26T08:38:55;32.23;;;14.70;;
20093;SDS011;10206;48.012;10.030;2023-01-26T08:41:21;34.87;;;14.97;;
20093;SDS011;10206;48.012;10.030;2023-01-26T08:43:47;29.30;;;14.40;;
20093;SDS011;10206;48.012;10.030;2023-01-26T08:46:15;33.23;;;15.03;;
20093;SDS011;10206;48.012;10.030;2023-01-26T08:48:41;29.53;;;13.70;;
20093;SDS011;10206;48.012;10.030;2023-01-26T08:51:07;35.17;;;15.33;;
20093;SDS011;10206;48.012;10.030;2023-01-26T08:53:34;40.27;;;17.10;;
20093;SDS011;10206;48.012;10.030;2023-01-26T08:56:04;34.47;;;14.90;;
20093;SDS011;10206;48.012;10.030;2023-01-26T08:58:32;32.80;;;14.50;;
20093;SDS011;10206;48.012;10.030;2023-01-26T09:01:02;30.07;;;13.17;;
20093;SDS011;10206;48.012;10.030;2023-01-26T09:03:33;33.00;;;14.43;;
20093;SDS011;10206;48.012;10.030;2023-01-26T09:06:00;31.77;;;14.73;;
20093;SDS011;10206;48.012;10.030;2023-01-26T09:08:28;29.80;;;13.67;;
20093;SDS011;10206;48.012;10.030;2023-01-26T09:10:54;35.90;;;15.40;;
20093;SDS011;10206;48.012;10.030;2023-01-26T09:13:21;31.00;;;14.10;;
20093;SDS011;10206;48.012;10.030;2023-01-26T09:15:47;37.40;;;15.87;;
20093;SDS011;10206;48.012;10.030;2023-01-26T09:18:14;36.23;;;16.30;;
20093;SDS011;10206;48.012;10.030;2023-01-26T09:20:40;35.90;;;14.97;;
20093;SDS011;10206;48.012;10.030;2023-01-26T09:23:06;30.63;;;13.33;;
20093;SDS011;10206;48.012;10.030;2023-01-26T09:25:37;32.20;;;13.10;;
20093;SDS011;10206;48.012;10.030;2023-01-26T09:28:04;28.50;;;12.80;;
20093;SDS011;10206;48.012;10.030;2023-01-26T09:30:30;31.97;;;14.20;;
20093;SDS011;10206;48.012;10.030;2023-01-26T09:32:57;32.23;;;14.33;;
20093;SDS011;10206;48.012;10.030;2023-01-26T09:35:24;43.23;;;16.50;;
20093;SDS011;10206;48.012;10.030;2023-01-26T09:37:50;42.43;;;16.90;;
20093;SDS011;10206;48.012;10.030;2023-01-26T09:40:18;45.17;;;17.73;;
20093;SDS011;10206;48.012;10.030;2023-01-26T09:45:48;30.20;;;14.07;;
20093;SDS011;10206;48.012;10.030;2023-01-26T09:51:42;36.30;;;14.60;;
20093;SDS011;10206;48.012;10.030;2023-01-26T09:56:48;37.03;;;15.00;;
20093;SDS011;10206;48.012;10.030;2023-01-26T10:02:15;33.00;;;13.17;;
20093;SDS011;10206;48.012;10.030;2023-01-26T10:05:03;34.80;;;15.40;;
20093;SDS011;10206;48.012;10.030;2023-01-26T10:07:40;31.23;;;13.93;;
20093;SDS011;10206;48.012;10.030;2023-01-26T10:10:11;27.87;;;12.20;;
20093;SDS011;10206;48.012;10.030;2023-01-26T10:12:52;27.70;;;11.13;;
20093;SDS011;10206;48.012;10.030;2023-01-26T10:15:37;27.83;;;12.77;;
20093;SDS011;10206;48.012;10.030;2023-01-26T10:18:11;26.57;;;11.50;;
20093;SDS011;10206;48.012;10.030;2023-01-26T10:20:46;27.10;;;11.77;;
20093;SDS011;10206;48.012;10.030;2023-01-26T10:23:34;26.57;;;11.80;;
20093;SDS011;10206;48.012;10.030;2023-01-26T10:26:03;24.77;;;11.20;;
20093;SDS011;10206;48.012;10.030;2023-01-26T10:28:45;27.20;;;11.37;;
20093;SDS011;10206;48.012;10.030;2023-01-26T10:31:16;25.37;;;11.73;;
20093;SDS011;10206;48.012;10.030;2023-01-26T10:34:29;26.27;;;12.13;;
20093;SDS011;10206;48.012;10.030;2023-01-26T10:36:33;29.07;;;12.40;;
20093;SDS011;10206;48.012;10.030;2023-01-26T10:39:03;25.23;;;10.93;;
20093;SDS011;10206;48.012;10.030;2023-01-26T10:41:31;26.23;;;10.87;;
20093;SDS011;10206;48.012;10.030;2023-01-26T10:43:58;23.90;;;11.03;;
20093;SDS011;10206;48.012;10.030;2023-01-26T10:48:57;29.13;;;12.47;;
20093;SDS011;10206;48.012;10.030;2023-01-26T10:51:27;24.80;;;11.73;;
20093;SDS011;10206;48.012;10.030;2023-01-26T10:56:47;30.17;;;12.50;;
20093;SDS011;10206;48.012;10.030;2023-01-26T10:59:30;24.00;;;11.93;;
20093;SDS011;10206;48.012;10.030;2023-01-26T11:02:01;26.23;;;11.87;;
20093;SDS011;10206;48.012;10.030;2023-01-26T11:04:40;27.30;;;11.83;;
20093;SDS011;10206;48.012;10.030;2023-01-26T11:07:26;26.50;;;12.43;;
20093;SDS011;10206;48.012;10.030;2023-01-26T11:09:55;25.67;;;11.63;;
20093;SDS011;10206;48.012;10.030;2023-01-26T11:12:23;25.20;;;11.43;;
20093;SDS011;10206;48.012;10.030;2023-01-26T11:15:00;24.63;;;10.97;;
20093;SDS011;10206;48.012;10.030;2023-01-26T11:17:32;24.53;;;10.77;;
20093;SDS011;10206;48.012;10.030;2023-01-26T11:23:21;23.80;;;11.57;;
20093;SDS011;10206;48.012;10.030;2023-01-26T11:26:20;28.10;;;11.47;;
20093;SDS011;10206;48.012;10.030;2023-01-26T11:32:11;29.90;;;12.73;;
20093;SDS011;10206;48.012;10.030;2023-01-26T11:43:17;28.60;;;11.97;;
20093;SDS011;10206;48.012;10.030;2023-01-26T11:49:14;27.70;;;12.03;;
20093;SDS011;10206;48.012;10.030;2023-01-26T11:52:07;28.80;;;11.97;;
20093;SDS011;10206;48.012;10.030;2023-01-26T12:00:21;29.97;;;11.90;;
20093;SDS011;10206;48.012;10.030;2023-01-26T12:03:14;28.17;;;12.67;;
20093;SDS011;10206;48.012;10.030;2023-01-26T12:05:43;28.20;;;11.67;;
20093;SDS011;10206;48.012;10.030;2023-01-26T12:08:16;29.80;;;11.67;;
20093;SDS011;10206;48.012;10.030;2023-01-26T12:11:03;25.07;;;12.00;;
20093;SDS011;10206;48.012;10.030;2023-01-26T12:13:51;27.57;;;12.03;;
20093;SDS011;10206;48.012;10.030;2023-01-26T12:16:37;28.07;;;11.53;;
20093;SDS011;10206;48.012;10.030;2023-01-26T12:21:42;30.33;;;12.93;;
20093;SDS011;10206;48.012;10.030;2023-01-26T12:24:11;25.83;;;12.40;;
20093;SDS011;10206;48.012;10.030;2023-01-26T12:26:52;23.90;;;11.83;;
20093;SDS011;10206;48.012;10.030;2023-01-26T12:29:30;27.63;;;11.63;;
20093;SDS011;10206;48.012;10.030;2023-01-26T12:32:07;27.80;;;11.60;;
20093;SDS011;10206;48.012;10.030;2023-01-26T12:34:36;24.47;;;11.00;;
20093;SDS011;10206;48.012;10.030;2023-01-26T12:39:52;28.27;;;13.07;;
20093;SDS011;10206;48.012;10.030;2023-01-26T12:42:38;56.07;;;23.07;;
20093;SDS011;10206;48.012;10.030;2023-01-26T12:45:19;39.80;;;17.23;;
20093;SDS011;10206;48.012;10.030;2023-01-26T12:47:52;57.47;;;25.50;;
20093;SDS011;10206;48.012;10.030;2023-01-26T12:50:39;167.53;;;60.20;;
20093;SDS011;10206;48.012;10.030;2023-01-26T12:53:20;157.80;;;58.40;;
20093;SDS011;10206;48.012;10.030;2023-01-26T12:58:45;286.23;;;97.67;;
20093;SDS011;10206;48.012;10.030;2023-01-26T13:01:17;62.90;;;23.90;;
20093;SDS011;10206;48.012;10.030;2023-01-26T13:06:24;29.13;;;12.20;;
20093;SDS011;10206;48.012;10.030;2023-01-26T13:11:50;24.03;;;10.50;;
20093;SDS011;10206;48.012;10.030;2023-01-26T13:24:44;31.47;;;14.70;;
20093;SDS011;10206;48.012;10.030;2023-01-26T13:29:57;27.77;;;12.90;;
20093;SDS011;10206;48.012;10.030;2023-01-26T13:34:51;26.03;;;10.70;;
20093;SDS011;10206;48.012;10.030;2023-01-26T13:37:30;36.43;;;14.40;;
20093;SDS011;10206;48.012;10.030;2023-01-26T13:40:22;27.27;;;11.23;;
20093;SDS011;10206;48.012;10.030;2023-01-26T13:46:02;22.17;;;10.00;;
20093;SDS011;10206;48.012;10.030;2023-01-26T13:51:18;22.30;;;9.50;;
20093;SDS011;10206;48.012;10.030;2023-01-26T13:59:17;20.00;;;9.30;;
20093;SDS011;10206;48.012;10.030;2023-01-26T14:04:21;19.40;;;8.90;;
20093;SDS011;10206;48.012;10.030;2023-01-26T14:09:20;22.90;;;11.00;;
20093;SDS011;10206;48.012;10.030;2023-01-26T14:11:58;27.63;;;12.20;;
20093;SDS011;10206;48.012;10.030;2023-01-26T14:14:34;28.97;;;12.77;;
20093;SDS011;10206;48.012;10.030;2023-01-26T14:17:08;27.43;;;11.33;;
20093;SDS011;10206;48.012;10.030;2023-01-26T14:19:50;25.30;;;11.87;;
20093;SDS011;10206;48.012;10.030;2023-01-26T14:22:16;25.80;;;11.77;;
20093;SDS011;10206;48.012;10.030;2023-01-26T14:24:46;24.60;;;12.10;;
20093;SDS011;10206;48.012;10.030;2023-01-26T14:27:55;25.07;;;10.60;;
20093;SDS011;10206;48.012;10.030;2023-01-26T14:35:27;22.50;;;10.00;;
20093;SDS011;10206;48.012;10.030;2023-01-26T14:40:46;20.27;;;9.90;;
20093;SDS011;10206;48.012;10.030;2023-01-26T14:43:17;22.47;;;9.50;;
20093;SDS011;10206;48.012;10.030;2023-01-26T14:45:57;22.10;;;9.20;;
20093;SDS011;10206;48.012;10.030;2023-01-26T14:48:33;23.77;;;9.70;;
20093;SDS011;10206;48.012;10.030;2023-01-26T14:51:20;17.93;;;8.90;;
20093;SDS011;10206;48.012;10.030;2023-01-26T14:53:50;18.47;;;8.80;;
20093;SDS011;10206;48.012;10.030;2023-01-26T14:56:22;18.73;;;8.77;;
20093;SDS011;10206;48.012;10.030;2023-01-26T14:58:56;23.90;;;9.83;;
20093;SDS011;10206;48.012;10.030;2023-01-26T15:01:23;19.87;;;10.17;;
20093;SDS011;10206;48.012;10.030;2023-01-26T15:03:55;20.20;;;9.33;;
20093;SDS011;10206;48.012;10.030;2023-01-26T15:06:41;20.47;;;8.80;;
20093;SDS011;10206;48.012;10.030;2023-01-26T15:09:21;17.40;;;8.00;;
20093;SDS011;10206;48.012;10.030;2023-01-26T15:11:55;19.40;;;8.13;;
20093;SDS011;10206;48.012;10.030;2023-01-26T15:22:47;18.27;;;8.67;;
20093;SDS011;10206;48.012;10.030;2023-01-26T15:25:16;18.67;;;8.83;;
20093;SDS011;10206;48.012;10.030;2023-01-26T15:27:50;19.97;;;9.20;;
20093;SDS011;10206;48.012;10.030;2023-01-26T15:30:25;20.27;;;9.63;;
20093;SDS011;10206;48.012;10.030;2023-01-26T15:32:53;21.23;;;9.47;;
20093;SDS011;10206;48.012;10.030;2023-01-26T15:35:23;21.57;;;9.67;;
20093;SDS011;10206;48.012;10.030;2023-01-26T15:38:10;29.53;;;15.30;;
20093;SDS011;10206;48.012;10.030;2023-01-26T15:40:37;31.10;;;16.20;;
20093;SDS011;10206;48.012;10.030;2023-01-26T15:43:10;16.83;;;8.43;;
20093;SDS011;10206;48.012;10.030;2023-01-26T15:45:57;17.43;;;9.00;;
20093;SDS011;10206;48.012;10.030;2023-01-26T15:48:25;17.60;;;8.00;;
20093;SDS011;10206;48.012;10.030;2023-01-26T15:50:55;19.00;;;8.43;;
20093;SDS011;10206;48.012;10.030;2023-01-26T15:53:21;19.77;;;8.30;;
20093;SDS011;10206;48.012;10.030;2023-01-26T15:55:49;17.93;;;8.63;;
20093;SDS011;10206;48.012;10.030;2023-01-26T15:58:20;18.60;;;8.77;;
20093;SDS011;10206;48.012;10.030;2023-01-26T16:00:47;19.43;;;8.17;;
20093;SDS011;10206;48.012;10.030;2023-01-26T16:03:15;22.50;;;9.13;;
20093;SDS011;10206;48.012;10.030;2023-01-26T16:05:42;18.53;;;9.00;;
20093;SDS011;10206;48.012;10.030;2023-01-26T16:08:12;17.53;;;8.73;;
20093;SDS011;10206;48.012;10.030;2023-01-26T16:10:41;18.57;;;8.67;;
20093;SDS011;10206;48.012;10.030;2023-01-26T16:13:12;23.67;;;11.17;;
20093;SDS011;10206;48.012;10.030;2023-01-26T16:15:46;22.27;;;10.40;;
20093;SDS011;10206;48.012;10.030;2023-01-26T16:18:16;19.20;;;9.70;;
20093;SDS011;10206;48.012;10.030;2023-01-26T16:20:43;22.47;;;10.63;;
20093;SDS011;10206;48.012;10.030;2023-01-26T16:25:45;29.37;;;14.80;;
20093;SDS011;10206;48.012;10.030;2023-01-26T16:28:12;24.97;;;11.23;;
20093;SDS011;10206;48.012;10.030;2023-01-26T16:30:40;28.13;;;13.40;;